createdAt,value
2022-10-19T00:03:41.610Z,12.22
2022-10-19T00:08:44.582Z,12.32
2022-10-19T00:13:46.995Z,12.35
2022-10-19T00:18:49.280Z,12.50
2022-10-19T00:23:51.659Z,12.51
2022-10-19T00:28:55.438Z,12.30
2022-10-19T00:33:58.986Z,12.50
2022-10-19T00:39:02.456Z,12.52
2022-10-19T00:44:10.578Z,12.63
2022-10-19T00:49:27.778Z,12.81
2022-10-19T00:54:32.675Z,12.67
2022-10-19T00:59:35.271Z,12.82
2022-10-19T01:04:41.633Z,12.72
2022-10-19T01:09:43.978Z,12.37
2022-10-19T01:15:17.111Z,12.66
2022-10-19T01:20:51.500Z,12.43
2022-10-19T01:26:25.841Z,12.45
2022-10-19T01:31:46.368Z,12.69
2022-10-19T01:37:31.031Z,12.40
2022-10-19T01:42:59.269Z,12.54
2022-10-19T01:48:18.893Z,12.70
2022-10-19T01:53:21.883Z,12.44
2022-10-19T01:58:33.730Z,12.06
2022-10-19T02:03:36.990Z,12.22
2022-10-19T02:08:43.929Z,12.12
2022-10-19T02:13:47.304Z,12.34
2022-10-19T02:18:51.502Z,12.34
2022-10-19T02:23:54.307Z,12.42
2022-10-19T02:28:57.121Z,12.57
2022-10-19T02:33:59.507Z,12.55
2022-10-19T02:39:02.006Z,12.32
2022-10-19T02:44:16.041Z,12.71
2022-10-19T02:49:18.738Z,12.28
2022-10-19T02:54:21.036Z,12.67
2022-10-19T02:59:24.337Z,12.35
2022-10-19T03:04:26.693Z,12.04
2022-10-19T03:09:28.936Z,11.94
2022-10-19T03:14:31.203Z,12.10
2022-10-19T03:19:33.793Z,12.35
2022-10-19T03:24:36.103Z,12.21
2022-10-19T03:29:38.391Z,12.23
2022-10-19T03:34:40.673Z,12.53
2022-10-19T03:39:43.393Z,12.16
2022-10-19T03:44:45.657Z,12.28
2022-10-19T03:49:50.287Z,12.26
2022-10-19T03:54:52.751Z,12.28
2022-10-19T03:59:55.487Z,12.21
2022-10-19T04:04:57.800Z,12.45
2022-10-19T04:10:00.156Z,12.39
2022-10-19T04:15:02.462Z,12.24
2022-10-19T04:20:05.240Z,12.36
2022-10-19T04:25:08.361Z,12.45
2022-10-19T04:30:11.121Z,12.23
2022-10-19T04:35:13.603Z,12.41
2022-10-19T04:40:15.990Z,12.37
2022-10-19T04:45:18.358Z,12.35
2022-10-19T04:50:20.773Z,12.18
2022-10-19T04:55:26.427Z,12.00
2022-10-19T05:00:29.116Z,12.26
2022-10-19T05:05:33.138Z,12.14
2022-10-19T05:10:35.470Z,12.19
2022-10-19T05:15:37.702Z,12.35
2022-10-19T05:20:40.023Z,12.23
2022-10-19T05:25:42.299Z,12.34
2022-10-19T05:30:48.808Z,12.14
2022-10-19T05:35:51.299Z,12.14
2022-10-19T05:40:53.870Z,11.98
2022-10-19T05:45:56.267Z,11.99
2022-10-19T05:50:58.525Z,12.21
2022-10-19T05:56:00.801Z,12.23
2022-10-19T06:01:03.823Z,12.28
2022-10-19T06:06:07.465Z,12.43
2022-10-19T06:11:11.129Z,12.41
2022-10-19T06:16:15.362Z,12.58
2022-10-19T06:21:21.118Z,12.41
2022-10-19T06:26:23.833Z,12.52
2022-10-19T06:31:26.167Z,12.56
2022-10-19T06:36:30.965Z,12.40
2022-10-19T06:41:34.375Z,12.66
2022-10-19T06:46:53.198Z,12.53
2022-10-19T06:51:55.532Z,12.77
2022-10-19T06:56:58.019Z,12.78
2022-10-19T07:02:00.287Z,12.75
2022-10-19T07:07:02.666Z,12.64
2022-10-19T07:12:05.188Z,12.80
2022-10-19T07:17:08.158Z,12.85
2022-10-19T07:22:10.992Z,12.91
2022-10-19T07:27:14.983Z,13.09
2022-10-19T07:32:17.312Z,13.08
2022-10-19T07:37:19.554Z,12.63
2022-10-19T07:47:29.058Z,12.48
2022-10-19T07:52:34.382Z,12.77
2022-10-19T07:57:40.704Z,12.92
2022-10-19T08:03:00.135Z,12.93
2022-10-19T08:08:07.518Z,12.82
2022-10-19T08:13:09.814Z,12.71
2022-10-19T08:18:12.135Z,12.83
2022-10-19T08:23:14.356Z,12.79
2022-10-19T08:28:16.686Z,13.10
2022-10-19T08:33:19.011Z,13.41
2022-10-19T08:38:21.642Z,13.33
2022-10-19T08:43:33.273Z,13.17
2022-10-19T08:48:39.314Z,13.04
2022-10-19T08:53:44.383Z,13.25
2022-10-19T08:58:58.556Z,13.67
2022-10-19T09:04:07.051Z,13.82
2022-10-19T09:09:13.017Z,13.69
2022-10-19T09:14:48.274Z,13.77
2022-10-19T09:19:50.540Z,13.58
2022-10-19T09:24:55.438Z,13.32
2022-10-19T09:29:59.701Z,13.15
2022-10-19T09:35:05.025Z,13.17
2022-10-19T09:40:10.387Z,13.42
2022-10-19T09:45:18.393Z,13.70
2022-10-19T09:50:22.867Z,13.62
2022-10-19T09:55:44.254Z,13.41
2022-10-19T10:00:50.711Z,13.34
2022-10-19T10:05:53.983Z,13.22
2022-10-19T10:11:26.431Z,13.38
2022-10-19T10:16:30.521Z,13.49
2022-10-19T10:21:37.379Z,14.00
2022-10-19T10:26:42.364Z,14.45
2022-10-19T10:31:44.894Z,13.91
2022-10-19T10:36:50.688Z,13.83
2022-10-19T10:41:53.178Z,14.54
2022-10-19T10:47:00.013Z,14.90
2022-10-19T10:52:07.277Z,14.58
2022-10-19T10:57:11.736Z,14.05
2022-10-19T11:02:36.086Z,13.64
2022-10-19T11:07:42.531Z,13.41
2022-10-19T11:12:48.507Z,13.02
2022-10-19T11:18:10.986Z,13.35
2022-10-19T11:23:39.124Z,13.60
2022-10-19T11:28:59.753Z,13.88
2022-10-19T11:34:16.298Z,14.28
2022-10-19T11:39:24.564Z,14.15
2022-10-19T11:44:53.902Z,13.82
2022-10-19T11:55:27.381Z,12.91
2022-10-19T12:00:39.046Z,12.96
2022-10-19T12:06:09.334Z,13.74
2022-10-19T12:11:40.368Z,14.34
2022-10-19T12:16:45.117Z,14.46
2022-10-19T12:21:48.326Z,14.37
2022-10-19T12:26:52.063Z,14.28
2022-10-19T12:31:55.166Z,14.48
2022-10-19T12:36:59.095Z,14.29
2022-10-19T12:42:16.461Z,14.29
2022-10-19T12:47:20.751Z,14.58
2022-10-19T12:52:45.301Z,14.69
2022-10-19T12:57:49.164Z,14.07
2022-10-19T13:03:04.510Z,13.99
2022-10-19T13:08:10.623Z,13.83
2022-10-19T13:13:53.049Z,14.38
2022-10-19T13:19:02.771Z,14.44
2022-10-19T13:24:30.795Z,15.28
2022-10-19T13:29:42.946Z,15.72
2022-10-19T13:34:46.469Z,15.01
2022-10-19T13:39:50.014Z,14.97
2022-10-19T13:44:53.184Z,15.08
2022-10-19T13:50:33.696Z,15.02
2022-10-19T13:56:13.293Z,14.11
2022-10-19T14:01:27.470Z,13.71
2022-10-19T14:06:45.420Z,13.93
2022-10-19T14:11:52.741Z,13.67
2022-10-19T14:17:04.038Z,13.74
2022-10-19T14:22:40.827Z,13.85
2022-10-19T14:27:43.242Z,13.04
2022-10-19T14:32:45.677Z,13.11
2022-10-19T14:37:48.310Z,12.87
2022-10-19T14:42:50.826Z,12.64
2022-10-19T14:48:01.198Z,12.14
2022-10-19T14:53:57.027Z,11.79
2022-10-19T14:59:00.933Z,11.44
2022-10-19T15:04:03.531Z,11.65
2022-10-19T15:09:12.146Z,11.66
2022-10-19T15:14:29.043Z,11.32
2022-10-19T15:19:34.356Z,10.97
2022-10-19T15:24:37.172Z,10.60
2022-10-19T15:29:40.334Z,10.33
2022-10-19T15:34:43.493Z,10.16
2022-10-19T15:39:45.948Z,9.92
2022-10-19T15:44:48.459Z,9.69
2022-10-19T15:49:56.838Z,9.65
2022-10-19T15:55:01.082Z,9.51
2022-10-19T16:00:15.449Z,9.44
2022-10-19T16:05:17.883Z,9.30
2022-10-19T16:10:23.077Z,9.15
2022-10-19T16:15:26.700Z,9.22
2022-10-19T16:20:30.215Z,9.18
2022-10-19T16:25:32.606Z,9.03
2022-10-19T16:30:34.904Z,8.90
2022-10-19T16:35:40.383Z,8.79
2022-10-19T16:40:42.968Z,8.54
2022-10-19T16:45:45.598Z,8.45
2022-10-19T16:51:07.184Z,8.25
2022-10-19T16:56:12.593Z,8.05
2022-10-19T17:01:17.249Z,7.88
2022-10-19T17:06:19.766Z,7.86
2022-10-19T17:11:24.675Z,7.72
2022-10-19T17:16:28.545Z,7.41
2022-10-19T17:21:33.214Z,7.40
2022-10-19T17:26:38.649Z,7.53
2022-10-19T17:31:41.638Z,7.73
2022-10-19T17:36:45.361Z,7.75
2022-10-19T17:41:48.734Z,7.66
2022-10-19T17:46:51.045Z,7.58
2022-10-19T17:51:53.755Z,7.60
2022-10-19T17:56:56.029Z,7.57
2022-10-19T18:01:58.447Z,7.62
2022-10-19T18:07:00.783Z,7.29
2022-10-19T18:12:04.962Z,7.31
2022-10-19T18:17:09.666Z,7.24
2022-10-19T18:22:12.312Z,7.39
2022-10-19T18:27:14.707Z,7.23
2022-10-19T18:32:17.317Z,7.28
2022-10-19T18:37:19.655Z,7.26
2022-10-19T18:42:22.054Z,7.28
2022-10-19T18:47:24.492Z,7.24
2022-10-19T18:52:26.821Z,7.08
2022-10-19T18:57:31.762Z,7.04
2022-10-19T19:02:46.065Z,7.02
2022-10-19T19:07:49.917Z,7.15
2022-10-19T19:12:52.221Z,6.99
2022-10-19T19:17:55.390Z,6.88
2022-10-19T19:22:57.761Z,6.78
2022-10-19T19:28:00.056Z,6.82
2022-10-19T19:33:02.470Z,6.88
2022-10-19T19:38:04.802Z,6.82
2022-10-19T19:43:07.167Z,6.80
2022-10-19T19:48:10.742Z,6.86
2022-10-19T19:53:13.077Z,6.79
2022-10-19T19:58:16.082Z,6.83
2022-10-19T20:03:18.461Z,6.82
2022-10-19T20:08:20.848Z,6.63
2022-10-19T20:13:23.414Z,6.36
2022-10-19T20:18:25.720Z,6.37
2022-10-19T20:23:28.033Z,6.34
2022-10-19T20:28:32.725Z,6.40
2022-10-19T20:33:37.069Z,6.25
2022-10-19T20:38:40.099Z,6.30
2022-10-19T20:43:42.377Z,6.30
2022-10-19T20:48:45.799Z,6.30
2022-10-19T20:53:50.355Z,6.17
2022-10-19T20:59:04.705Z,6.22
2022-10-19T21:04:09.360Z,6.24
2022-10-19T21:09:13.006Z,5.94
2022-10-19T21:14:27.084Z,5.98
2022-10-19T21:19:31.282Z,6.07
2022-10-19T21:24:36.095Z,6.27
2022-10-19T21:29:38.557Z,6.23
2022-10-19T21:34:40.840Z,6.05
2022-10-19T21:39:43.317Z,6.04
2022-10-19T21:44:45.548Z,6.10
2022-10-19T21:49:47.855Z,6.08
2022-10-19T21:54:50.142Z,5.99
2022-10-19T21:59:52.423Z,5.93
2022-10-19T22:04:54.762Z,5.84
2022-10-19T22:09:57.029Z,5.86
2022-10-19T22:14:59.350Z,5.86
2022-10-19T22:20:01.642Z,5.77
2022-10-19T22:25:04.248Z,5.65
2022-10-19T22:30:07.332Z,5.67
2022-10-19T22:35:09.842Z,5.56
2022-10-19T22:40:13.290Z,5.50
2022-10-19T22:45:15.574Z,5.63
2022-10-19T22:50:17.866Z,5.52
2022-10-19T22:55:20.081Z,5.18
2022-10-19T23:00:22.445Z,5.22
2022-10-19T23:05:24.928Z,5.66
2022-10-19T23:10:27.407Z,5.39
2022-10-19T23:15:29.669Z,5.29
2022-10-19T23:20:31.925Z,5.44
2022-10-19T23:25:34.199Z,5.89
2022-10-19T23:30:38.371Z,6.02
2022-10-19T23:35:40.611Z,5.99
2022-10-19T23:40:46.106Z,6.11
2022-10-19T23:45:48.380Z,6.25
2022-10-19T23:50:58.193Z,6.44
2022-10-19T23:56:06.557Z,6.44
